sensor_id;sensor_type;location;lat;lon;timestamp;pressure;altitude;pressure_sealevel;temperature;humidity
59789;BME280;47353;51.614;5.530;2022-09-29T00:01:41;99889.78;;;5.76;100.00
59789;BME280;47353;51.614;5.530;2022-09-29T00:04:06;99895.53;;;5.75;100.00
59789;BME280;47353;51.614;5.530;2022-09-29T00:06:33;99896.63;;;5.74;100.00
59789;BME280;47353;51.614;5.530;2022-09-29T00:08:59;99883.97;;;5.68;100.00
59789;BME280;47353;51.614;5.530;2022-09-29T00:11:24;99896.59;;;5.64;100.00
59789;BME280;47353;51.614;5.530;2022-09-29T00:13:49;99890.25;;;5.63;100.00
59789;BME280;47353;51.614;5.530;2022-09-29T00:16:15;99892.75;;;5.60;100.00
59789;BME280;47353;51.614;5.530;2022-09-29T00:18:40;99887.78;;;5.57;100.00
59789;BME280;47353;51.614;5.530;2022-09-29T00:21:12;99891.59;;;5.56;100.00
59789;BME280;47353;51.614;5.530;2022-09-29T00:23:38;99888.56;;;5.52;100.00
59789;BME280;47353;51.614;5.530;2022-09-29T00:28:29;99889.63;;;5.41;100.00
59789;BME280;47353;51.614;5.530;2022-09-29T00:30:57;99882.47;;;5.35;100.00
59789;BME280;47353;51.614;5.530;2022-09-29T00:33:22;99884.63;;;5.33;100.00
59789;BME280;47353;51.614;5.530;2022-09-29T00:35:58;99889.81;;;5.30;100.00
59789;BME280;47353;51.614;5.530;2022-09-29T00:38:25;99883.22;;;5.31;100.00
59789;BME280;47353;51.614;5.530;2022-09-29T00:40:50;99883.75;;;5.28;100.00
59789;BME280;47353;51.614;5.530;2022-09-29T00:46:07;99880.44;;;5.21;100.00
59789;BME280;47353;51.614;5.530;2022-09-29T00:48:32;99879.34;;;5.17;100.00
59789;BME280;47353;51.614;5.530;2022-09-29T00:50:58;99884.25;;;5.14;100.00
59789;BME280;47353;51.614;5.530;2022-09-29T00:53:24;99877.94;;;5.14;100.00
59789;BME280;47353;51.614;5.530;2022-09-29T00:56:12;99886.41;;;5.12;100.00
59789;BME280;47353;51.614;5.530;2022-09-29T00:58:40;99876.50;;;5.06;100.00
59789;BME280;47353;51.614;5.530;2022-09-29T01:01:07;99886.94;;;5.09;100.00
59789;BME280;47353;51.614;5.530;2022-09-29T01:03:43;99884.75;;;5.06;100.00
59789;BME280;47353;51.614;5.530;2022-09-29T01:06:20;99887.75;;;5.05;100.00
59789;BME280;47353;51.614;5.530;2022-09-29T01:11:17;99888.00;;;5.03;100.00
59789;BME280;47353;51.614;5.530;2022-09-29T01:13:45;99884.41;;;4.98;100.00
59789;BME280;47353;51.614;5.530;2022-09-29T01:16:10;99882.50;;;4.98;100.00
59789;BME280;47353;51.614;5.530;2022-09-29T01:18:36;99883.00;;;4.95;100.00
59789;BME280;47353;51.614;5.530;2022-09-29T01:27:06;99884.91;;;4.90;100.00
59789;BME280;47353;51.614;5.530;2022-09-29T01:29:51;99883.75;;;4.86;100.00
59789;BME280;47353;51.614;5.530;2022-09-29T01:41:22;99890.53;;;4.73;100.00
59789;BME280;47353;51.614;5.530;2022-09-29T01:43:57;99895.16;;;4.68;100.00
59789;BME280;47353;51.614;5.530;2022-09-29T01:46:27;99889.09;;;4.66;100.00
59789;BME280;47353;51.614;5.530;2022-09-29T01:48:56;99893.78;;;4.70;100.00
59789;BME280;47353;51.614;5.530;2022-09-29T01:51:37;99896.78;;;4.69;100.00
59789;BME280;47353;51.614;5.530;2022-09-29T01:54:11;99890.72;;;4.62;100.00
59789;BME280;47353;51.614;5.530;2022-09-29T01:56:49;99895.94;;;4.63;100.00
59789;BME280;47353;51.614;5.530;2022-09-29T01:59:22;99894.22;;;4.57;100.00
59789;BME280;47353;51.614;5.530;2022-09-29T02:01:50;99899.97;;;4.56;100.00
59789;BME280;47353;51.614;5.530;2022-09-29T02:04:30;99894.22;;;4.57;100.00
59789;BME280;47353;51.614;5.530;2022-09-29T02:07:04;99895.88;;;4.58;100.00
59789;BME280;47353;51.614;5.530;2022-09-29T02:09:38;99896.97;;;4.57;100.00
59789;BME280;47353;51.614;5.530;2022-09-29T02:12:05;99898.34;;;4.55;100.00
59789;BME280;47353;51.614;5.530;2022-09-29T02:14:39;99895.84;;;4.53;100.00
59789;BME280;47353;51.614;5.530;2022-09-29T02:17:19;99888.38;;;4.49;100.00
59789;BME280;47353;51.614;5.530;2022-09-29T02:19:47;99895.28;;;4.51;100.00
59789;BME280;47353;51.614;5.530;2022-09-29T02:22:15;99889.81;;;4.51;100.00
59789;BME280;47353;51.614;5.530;2022-09-29T02:24:41;99894.72;;;4.49;100.00
59789;BME280;47353;51.614;5.530;2022-09-29T02:27:07;99895.53;;;4.50;100.00
59789;BME280;47353;51.614;5.530;2022-09-29T02:29:34;99897.44;;;4.49;100.00
59789;BME280;47353;51.614;5.530;2022-09-29T02:32:02;99897.13;;;4.46;100.00
59789;BME280;47353;51.614;5.530;2022-09-29T02:34:30;99899.31;;;4.44;100.00
59789;BME280;47353;51.614;5.530;2022-09-29T02:56:07;99909.81;;;4.25;100.00
59789;BME280;47353;51.614;5.530;2022-09-29T02:58:51;99910.28;;;4.17;100.00
59789;BME280;47353;51.614;5.530;2022-09-29T03:01:18;99904.22;;;4.15;100.00
59789;BME280;47353;51.614;5.530;2022-09-29T03:03:44;99904.75;;;4.12;100.00
59789;BME280;47353;51.614;5.530;2022-09-29T03:06:10;99897.88;;;4.10;100.00
59789;BME280;47353;51.614;5.530;2022-09-29T03:08:35;99899.47;;;4.06;100.00
59789;BME280;47353;51.614;5.530;2022-09-29T03:11:01;99910.16;;;4.07;100.00
59789;BME280;47353;51.614;5.530;2022-09-29T03:13:27;99904.94;;;4.06;100.00
59789;BME280;47353;51.614;5.530;2022-09-29T03:15:52;99907.16;;;4.09;100.00
59789;BME280;47353;51.614;5.530;2022-09-29T03:18:17;99913.78;;;4.13;100.00
59789;BME280;47353;51.614;5.530;2022-09-29T03:20:43;99906.91;;;4.10;100.00
59789;BME280;47353;51.614;5.530;2022-09-29T03:23:08;99898.47;;;4.12;100.00
59789;BME280;47353;51.614;5.530;2022-09-29T03:25:34;99897.94;;;4.15;100.00
59789;BME280;47353;51.614;5.530;2022-09-29T03:27:59;99897.69;;;4.16;100.00
59789;BME280;47353;51.614;5.530;2022-09-29T03:30:25;99897.38;;;4.13;100.00
59789;BME280;47353;51.614;5.530;2022-09-29T03:32:50;99894.88;;;4.11;100.00
59789;BME280;47353;51.614;5.530;2022-09-29T03:35:16;99890.38;;;4.00;100.00
59789;BME280;47353;51.614;5.530;2022-09-29T03:37:41;99902.16;;;4.01;100.00
59789;BME280;47353;51.614;5.530;2022-09-29T03:40:07;99899.13;;;3.97;100.00
59789;BME280;47353;51.614;5.530;2022-09-29T03:42:32;99897.72;;;3.95;100.00
59789;BME280;47353;51.614;5.530;2022-09-29T03:44:58;99897.47;;;3.96;100.00
59789;BME280;47353;51.614;5.530;2022-09-29T03:47:23;99895.50;;;3.92;100.00
59789;BME280;47353;51.614;5.530;2022-09-29T03:49:49;99902.56;;;3.88;100.00
59789;BME280;47353;51.614;5.530;2022-09-29T03:52:14;99906.13;;;3.88;100.00
59789;BME280;47353;51.614;5.530;2022-09-29T03:54:39;99905.28;;;3.88;100.00
59789;BME280;47353;51.614;5.530;2022-09-29T03:57:05;99908.63;;;3.90;100.00
59789;BME280;47353;51.614;5.530;2022-09-29T03:59:30;99908.63;;;3.90;100.00
59789;BME280;47353;51.614;5.530;2022-09-29T04:01:56;99905.09;;;3.94;100.00
59789;BME280;47353;51.614;5.530;2022-09-29T04:04:21;99911.09;;;3.91;100.00
59789;BME280;47353;51.614;5.530;2022-09-29T04:06:46;99911.16;;;3.96;100.00
59789;BME280;47353;51.614;5.530;2022-09-29T04:09:12;99913.31;;;3.94;100.00
59789;BME280;47353;51.614;5.530;2022-09-29T04:11:37;99914.97;;;3.95;100.00
59789;BME280;47353;51.614;5.530;2022-09-29T04:14:03;99912.47;;;3.94;100.00
59789;BME280;47353;51.614;5.530;2022-09-29T04:16:28;99919.91;;;3.98;100.00
59789;BME280;47353;51.614;5.530;2022-09-29T04:18:54;99920.44;;;3.95;100.00
59789;BME280;47353;51.614;5.530;2022-09-29T04:21:19;99922.88;;;3.92;100.00
59789;BME280;47353;51.614;5.530;2022-09-29T04:23:45;99916.50;;;3.86;100.00
59789;BME280;47353;51.614;5.530;2022-09-29T04:26:11;99917.00;;;3.83;100.00
59789;BME280;47353;51.614;5.530;2022-09-29T04:28:37;99926.31;;;3.82;100.00
59789;BME280;47353;51.614;5.530;2022-09-29T04:31:03;99924.84;;;3.75;100.00
59789;BME280;47353;51.614;5.530;2022-09-29T04:33:28;99925.13;;;3.73;100.00
59789;BME280;47353;51.614;5.530;2022-09-29T04:35:55;99930.06;;;3.76;100.00
59789;BME280;47353;51.614;5.530;2022-09-29T04:38:20;99926.19;;;3.72;100.00
59789;BME280;47353;51.614;5.530;2022-09-29T04:40:47;99927.84;;;3.73;100.00
59789;BME280;47353;51.614;5.530;2022-09-29T04:43:12;99934.63;;;3.71;100.00
59789;BME280;47353;51.614;5.530;2022-09-29T04:45:37;99931.31;;;3.69;100.00
59789;BME280;47353;51.614;5.530;2022-09-29T04:48:03;99931.28;;;3.64;100.00
59789;BME280;47353;51.614;5.530;2022-09-29T04:50:28;99932.34;;;3.63;100.00
59789;BME280;47353;51.614;5.530;2022-09-29T04:52:54;99935.06;;;3.63;100.00
59789;BME280;47353;51.614;5.530;2022-09-29T04:55:19;99940.00;;;3.61;100.00
59789;BME280;47353;51.614;5.530;2022-09-29T04:57:45;99935.22;;;3.51;100.00
59789;BME280;47353;51.614;5.530;2022-09-29T05:00:11;99943.50;;;3.56;100.00
59789;BME280;47353;51.614;5.530;2022-09-29T05:02:37;99946.22;;;3.56;100.00
59789;BME280;47353;51.614;5.530;2022-09-29T05:05:03;99946.16;;;3.51;100.00
59789;BME280;47353;51.614;5.530;2022-09-29T05:07:30;99948.06;;;3.51;100.00
59789;BME280;47353;51.614;5.530;2022-09-29T05:09:56;99940.09;;;3.49;100.00
59789;BME280;47353;51.614;5.530;2022-09-29T05:12:21;99957.84;;;3.47;100.00
59789;BME280;47353;51.614;5.530;2022-09-29T05:14:46;99945.81;;;3.47;100.00
59789;BME280;47353;51.614;5.530;2022-09-29T05:17:12;99953.78;;;3.49;100.00
59789;BME280;47353;51.614;5.530;2022-09-29T05:19:38;99954.63;;;3.50;100.00
59789;BME280;47353;51.614;5.530;2022-09-29T05:22:03;99957.94;;;3.52;100.00
59789;BME280;47353;51.614;5.530;2022-09-29T05:24:28;99955.69;;;3.48;100.00
59789;BME280;47353;51.614;5.530;2022-09-29T05:26:54;99963.66;;;3.50;100.00
59789;BME280;47353;51.614;5.530;2022-09-29T05:29:19;99962.81;;;3.50;100.00
59789;BME280;47353;51.614;5.530;2022-09-29T05:31:45;99974.28;;;3.47;100.00
59789;BME280;47353;51.614;5.530;2022-09-29T05:34:10;99973.34;;;3.41;100.00
59789;BME280;47353;51.614;5.530;2022-09-29T05:36:36;99974.53;;;3.45;100.00
59789;BME280;47353;51.614;5.530;2022-09-29T05:39:02;99978.00;;;3.40;100.00
59789;BME280;47353;51.614;5.530;2022-09-29T05:41:27;99983.47;;;3.40;100.00
59789;BME280;47353;51.614;5.530;2022-09-29T05:43:53;99987.03;;;3.41;100.00
59789;BME280;47353;51.614;5.530;2022-09-29T05:46:20;99981.00;;;3.39;100.00
59789;BME280;47353;51.614;5.530;2022-09-29T05:48:46;99984.00;;;3.37;100.00
59789;BME280;47353;51.614;5.530;2022-09-29T05:51:17;99980.41;;;3.37;100.00
59789;BME280;47353;51.614;5.530;2022-09-29T05:53:42;99980.50;;;3.42;100.00
59789;BME280;47353;51.614;5.530;2022-09-29T05:56:10;99986.22;;;3.40;100.00
59789;BME280;47353;51.614;5.530;2022-09-29T05:58:37;99988.97;;;3.40;100.00
59789;BME280;47353;51.614;5.530;2022-09-29T06:01:11;99992.25;;;3.42;100.00
59789;BME280;47353;51.614;5.530;2022-09-29T06:03:37;99992.59;;;3.46;100.00
59789;BME280;47353;51.614;5.530;2022-09-29T06:06:07;99996.16;;;3.47;100.00
59789;BME280;47353;51.614;5.530;2022-09-29T06:08:33;99989.34;;;3.49;100.00
59789;BME280;47353;51.614;5.530;2022-09-29T06:11:07;99994.56;;;3.51;100.00
59789;BME280;47353;51.614;5.530;2022-09-29T06:13:36;99997.72;;;3.59;100.00
59789;BME280;47353;51.614;5.530;2022-09-29T06:16:01;99989.75;;;3.58;100.00
59789;BME280;47353;51.614;5.530;2022-09-29T06:18:27;100000.81;;;3.68;100.00
59789;BME280;47353;51.614;5.530;2022-09-29T06:20:52;100008.53;;;3.71;100.00
59789;BME280;47353;51.614;5.530;2022-09-29T06:23:17;100005.03;;;3.75;100.00
59789;BME280;47353;51.614;5.530;2022-09-29T06:25:43;100004.34;;;3.85;100.00
59789;BME280;47353;51.614;5.530;2022-09-29T06:28:08;100011.53;;;3.91;100.00
59789;BME280;47353;51.614;5.530;2022-09-29T06:30:34;100014.69;;;3.99;100.00
59789;BME280;47353;51.614;5.530;2022-09-29T06:32:59;100015.56;;;4.05;100.00
59789;BME280;47353;51.614;5.530;2022-09-29T06:35:24;100018.94;;;4.12;100.00
59789;BME280;47353;51.614;5.530;2022-09-29T06:38:08;100027.53;;;4.20;100.00
59789;BME280;47353;51.614;5.530;2022-09-29T06:40:34;100030.09;;;4.27;100.00
59789;BME280;47353;51.614;5.530;2022-09-29T06:42:59;100022.47;;;4.34;100.00
59789;BME280;47353;51.614;5.530;2022-09-29T06:45:25;100025.63;;;4.42;100.00
59789;BME280;47353;51.614;5.530;2022-09-29T06:47:57;100026.22;;;4.49;100.00
59789;BME280;47353;51.614;5.530;2022-09-29T06:50:22;100032.59;;;4.55;100.00
59789;BME280;47353;51.614;5.530;2022-09-29T06:52:47;100034.84;;;4.58;100.00
59789;BME280;47353;51.614;5.530;2022-09-29T06:55:14;100032.13;;;4.63;100.00
59789;BME280;47353;51.614;5.530;2022-09-29T06:57:39;100037.41;;;4.69;100.00
59789;BME280;47353;51.614;5.530;2022-09-29T07:00:05;100042.16;;;4.79;100.00
59789;BME280;47353;51.614;5.530;2022-09-29T07:02:31;100037.00;;;4.82;100.00
59789;BME280;47353;51.614;5.530;2022-09-29T07:04:56;100039.84;;;4.92;100.00
59789;BME280;47353;51.614;5.530;2022-09-29T07:07:21;100045.16;;;5.04;100.00
59789;BME280;47353;51.614;5.530;2022-09-29T07:09:47;100051.31;;;5.16;100.00
59789;BME280;47353;51.614;5.530;2022-09-29T07:12:12;100046.47;;;5.28;100.00
59789;BME280;47353;51.614;5.530;2022-09-29T07:14:38;100045.72;;;5.38;100.00
59789;BME280;47353;51.614;5.530;2022-09-29T07:17:03;100053.75;;;5.44;100.00
59789;BME280;47353;51.614;5.530;2022-09-29T07:19:28;100054.91;;;5.53;100.00
59789;BME280;47353;51.614;5.530;2022-09-29T07:21:54;100059.66;;;5.63;100.00
59789;BME280;47353;51.614;5.530;2022-09-29T07:24:19;100063.25;;;5.68;100.00
59789;BME280;47353;51.614;5.530;2022-09-29T07:26:45;100063.88;;;5.80;100.00
59789;BME280;47353;51.614;5.530;2022-09-29T07:29:10;100067.88;;;5.99;100.00
59789;BME280;47353;51.614;5.530;2022-09-29T07:31:36;100066.91;;;6.25;100.00
59789;BME280;47353;51.614;5.530;2022-09-29T07:34:03;100068.91;;;6.45;100.00
59789;BME280;47353;51.614;5.530;2022-09-29T07:36:28;100066.75;;;6.57;100.00
59789;BME280;47353;51.614;5.530;2022-09-29T07:38:54;100064.59;;;6.64;100.00
59789;BME280;47353;51.614;5.530;2022-09-29T07:41:22;100060.75;;;6.70;100.00
59789;BME280;47353;51.614;5.530;2022-09-29T07:43:48;100062.16;;;6.77;100.00
59789;BME280;47353;51.614;5.530;2022-09-29T07:46:13;100069.63;;;6.87;100.00
59789;BME280;47353;51.614;5.530;2022-09-29T07:48:39;100069.41;;;7.24;100.00
59789;BME280;47353;51.614;5.530;2022-09-29T07:51:09;100069.66;;;7.82;100.00
59789;BME280;47353;51.614;5.530;2022-09-29T07:53:35;100077.78;;;8.53;100.00
59789;BME280;47353;51.614;5.530;2022-09-29T07:56:16;100076.41;;;9.04;98.85
59789;BME280;47353;51.614;5.530;2022-09-29T07:58:43;100076.66;;;9.79;99.16
59789;BME280;47353;51.614;5.530;2022-09-29T08:01:09;100082.88;;;10.47;96.30
59789;BME280;47353;51.614;5.530;2022-09-29T08:03:41;100082.56;;;11.14;92.65
59789;BME280;47353;51.614;5.530;2022-09-29T08:06:08;100091.47;;;11.48;88.34
59789;BME280;47353;51.614;5.530;2022-09-29T08:08:37;100093.81;;;11.92;82.61
59789;BME280;47353;51.614;5.530;2022-09-29T08:11:05;100101.19;;;12.42;81.60
59789;BME280;47353;51.614;5.530;2022-09-29T08:13:32;100106.34;;;12.89;78.34
59789;BME280;47353;51.614;5.530;2022-09-29T08:16:01;100109.00;;;13.21;74.20
59789;BME280;47353;51.614;5.530;2022-09-29T08:18:28;100109.66;;;13.76;72.97
59789;BME280;47353;51.614;5.530;2022-09-29T08:20:54;100111.47;;;14.03;69.56
59789;BME280;47353;51.614;5.530;2022-09-29T08:23:20;100109.72;;;14.29;67.83
59789;BME280;47353;51.614;5.530;2022-09-29T08:25:46;100115.38;;;14.85;68.16
59789;BME280;47353;51.614;5.530;2022-09-29T08:28:12;100120.22;;;15.19;65.50
59789;BME280;47353;51.614;5.530;2022-09-29T08:30:37;100123.78;;;15.67;62.24
59789;BME280;47353;51.614;5.530;2022-09-29T08:33:03;100122.59;;;15.85;62.43
59789;BME280;47353;51.614;5.530;2022-09-29T08:35:28;100126.38;;;16.14;59.29
59789;BME280;47353;51.614;5.530;2022-09-29T08:37:54;100123.38;;;16.45;59.97
59789;BME280;47353;51.614;5.530;2022-09-29T08:40:21;100135.28;;;16.71;57.61
59789;BME280;47353;51.614;5.530;2022-09-29T08:42:57;100136.81;;;16.98;58.40
59789;BME280;47353;51.614;5.530;2022-09-29T08:45:35;100135.63;;;17.57;57.25
59789;BME280;47353;51.614;5.530;2022-09-29T08:48:15;100138.53;;;17.69;54.23
59789;BME280;47353;51.614;5.530;2022-09-29T08:51:12;100139.88;;;18.04;54.29
59789;BME280;47353;51.614;5.530;2022-09-29T08:53:37;100150.72;;;18.59;52.34
59789;BME280;47353;51.614;5.530;2022-09-29T08:56:05;100142.94;;;18.88;51.47
59789;BME280;47353;51.614;5.530;2022-09-29T08:58:33;100147.78;;;19.36;49.10
59789;BME280;47353;51.614;5.530;2022-09-29T09:01:34;100147.66;;;19.56;54.22
59789;BME280;47353;51.614;5.530;2022-09-29T09:12:16;100153.75;;;21.27;43.74
59789;BME280;47353;51.614;5.530;2022-09-29T09:15:06;100154.44;;;21.90;44.13
59789;BME280;47353;51.614;5.530;2022-09-29T09:20:40;100162.63;;;22.71;40.61
59789;BME280;47353;51.614;5.530;2022-09-29T09:23:20;100165.75;;;22.66;42.87
59789;BME280;47353;51.614;5.530;2022-09-29T09:25:57;100171.19;;;22.97;42.10
59789;BME280;47353;51.614;5.530;2022-09-29T09:28:44;100169.63;;;23.45;41.65
59789;BME280;47353;51.614;5.530;2022-09-29T09:31:32;100171.53;;;23.64;40.67
59789;BME280;47353;51.614;5.530;2022-09-29T09:34:21;100168.56;;;23.83;41.52
59789;BME280;47353;51.614;5.530;2022-09-29T09:36:57;100168.56;;;23.83;37.82
59789;BME280;47353;51.614;5.530;2022-09-29T09:39:36;100171.56;;;24.23;36.56
59789;BME280;47353;51.614;5.530;2022-09-29T09:42:14;100171.03;;;24.43;38.43
59789;BME280;47353;51.614;5.530;2022-09-29T09:44:46;100167.59;;;25.34;35.67
59789;BME280;47353;51.614;5.530;2022-09-29T09:47:23;100166.19;;;25.14;33.73
59789;BME280;47353;51.614;5.530;2022-09-29T09:49:55;100173.75;;;25.03;34.04
59789;BME280;47353;51.614;5.530;2022-09-29T09:52:38;100170.59;;;25.55;35.54
59789;BME280;47353;51.614;5.530;2022-09-29T09:55:07;100174.94;;;26.75;34.60
59789;BME280;47353;51.614;5.530;2022-09-29T10:00:14;100176.66;;;27.28;33.26
59789;BME280;47353;51.614;5.530;2022-09-29T10:02:46;100172.56;;;27.08;30.73
59789;BME280;47353;51.614;5.530;2022-09-29T10:05:18;100176.97;;;26.81;31.04
59789;BME280;47353;51.614;5.530;2022-09-29T10:07:44;100171.38;;;27.20;29.71
59789;BME280;47353;51.614;5.530;2022-09-29T10:10:19;100180.25;;;26.94;29.86
59789;BME280;47353;51.614;5.530;2022-09-29T10:12:48;100175.84;;;27.31;29.34
59789;BME280;47353;51.614;5.530;2022-09-29T10:15:26;100187.25;;;27.49;29.16
59789;BME280;47353;51.614;5.530;2022-09-29T10:18:21;100182.28;;;28.20;29.75
59789;BME280;47353;51.614;5.530;2022-09-29T10:20:48;100183.16;;;27.29;27.82
59789;BME280;47353;51.614;5.530;2022-09-29T10:23:31;100181.56;;;27.52;30.73
59789;BME280;47353;51.614;5.530;2022-09-29T10:26:04;100192.94;;;27.49;28.05
59789;BME280;47353;51.614;5.530;2022-09-29T10:28:41;100190.56;;;28.90;28.95
59789;BME280;47353;51.614;5.530;2022-09-29T10:31:19;100195.03;;;28.87;27.68
59789;BME280;47353;51.614;5.530;2022-09-29T10:33:48;100186.13;;;28.82;27.50
59789;BME280;47353;51.614;5.530;2022-09-29T10:36:14;100190.06;;;29.02;26.76
59789;BME280;47353;51.614;5.530;2022-09-29T10:38:45;100190.16;;;29.50;26.52
59789;BME280;47353;51.614;5.530;2022-09-29T10:41:11;100198.69;;;28.91;25.55
59789;BME280;47353;51.614;5.530;2022-09-29T10:46:05;100201.97;;;29.52;23.91
59789;BME280;47353;51.614;5.530;2022-09-29T10:48:31;100191.00;;;29.47;24.38
59789;BME280;47353;51.614;5.530;2022-09-29T10:51:03;100195.13;;;29.39;26.06
59789;BME280;47353;51.614;5.530;2022-09-29T10:53:36;100201.97;;;28.86;25.20
59789;BME280;47353;51.614;5.530;2022-09-29T10:56:15;100189.03;;;30.25;26.37
59789;BME280;47353;51.614;5.530;2022-09-29T10:58:44;100196.72;;;30.65;25.60
59789;BME280;47353;51.614;5.530;2022-09-29T11:01:16;100192.13;;;30.41;24.04
59789;BME280;47353;51.614;5.530;2022-09-29T11:06:15;100196.72;;;30.31;24.43
59789;BME280;47353;51.614;5.530;2022-09-29T11:14:42;100186.06;;;34.00;20.81
59789;BME280;47353;51.614;5.530;2022-09-29T11:17:36;100191.28;;;33.56;22.31
59789;BME280;47353;51.614;5.530;2022-09-29T11:20:04;100199.94;;;33.37;21.30
59789;BME280;47353;51.614;5.530;2022-09-29T11:23:08;100190.66;;;34.83;22.73
59789;BME280;47353;51.614;5.530;2022-09-29T11:31:04;100181.66;;;32.95;21.68
59789;BME280;47353;51.614;5.530;2022-09-29T11:33:40;100190.53;;;33.01;20.51
59789;BME280;47353;51.614;5.530;2022-09-29T11:36:27;100192.97;;;33.86;20.83
59789;BME280;47353;51.614;5.530;2022-09-29T11:44:52;100189.78;;;30.96;20.73
59789;BME280;47353;51.614;5.530;2022-09-29T11:55:33;100191.59;;;26.83;25.88
59789;BME280;47353;51.614;5.530;2022-09-29T12:01:21;100199.72;;;28.50;27.19
59789;BME280;47353;51.614;5.530;2022-09-29T12:03:43;100197.00;;;27.44;26.66
59789;BME280;47353;51.614;5.530;2022-09-29T12:12:03;100202.69;;;22.04;34.67
59789;BME280;47353;51.614;5.530;2022-09-29T12:14:52;100198.69;;;21.39;35.80
59789;BME280;47353;51.614;5.530;2022-09-29T12:17:22;100194.41;;;24.07;33.97
59789;BME280;47353;51.614;5.530;2022-09-29T12:19:56;100198.84;;;25.44;28.18
59789;BME280;47353;51.614;5.530;2022-09-29T12:22:24;100199.75;;;28.22;25.50
59789;BME280;47353;51.614;5.530;2022-09-29T12:24:53;100189.53;;;28.45;25.72
59789;BME280;47353;51.614;5.530;2022-09-29T12:27:31;100192.41;;;26.80;26.58
59789;BME280;47353;51.614;5.530;2022-09-29T12:30:02;100199.81;;;27.80;25.33
59789;BME280;47353;51.614;5.530;2022-09-29T12:32:38;100202.16;;;28.41;26.20
59789;BME280;47353;51.614;5.530;2022-09-29T12:38:00;100190.75;;;30.52;25.00
59789;BME280;47353;51.614;5.530;2022-09-29T12:40:36;100194.53;;;31.59;22.23
59789;BME280;47353;51.614;5.530;2022-09-29T12:43:08;100198.00;;;30.60;21.66
59789;BME280;47353;51.614;5.530;2022-09-29T12:46:09;100189.16;;;31.38;22.57
59789;BME280;47353;51.614;5.530;2022-09-29T12:51:23;100196.44;;;30.22;21.79
59789;BME280;47353;51.614;5.530;2022-09-29T12:54:02;100192.13;;;29.56;23.50
59789;BME280;47353;51.614;5.530;2022-09-29T12:56:36;100196.59;;;27.78;26.16
59789;BME280;47353;51.614;5.530;2022-09-29T12:59:12;100195.59;;;25.42;28.57
59789;BME280;47353;51.614;5.530;2022-09-29T13:01:39;100196.69;;;23.98;30.50
59789;BME280;47353;51.614;5.530;2022-09-29T13:04:28;100199.34;;;23.17;31.68
59789;BME280;47353;51.614;5.530;2022-09-29T13:07:26;100196.59;;;22.56;32.71
59789;BME280;47353;51.614;5.530;2022-09-29T13:15:50;100188.84;;;27.89;28.54
59789;BME280;47353;51.614;5.530;2022-09-29T13:21:26;100183.94;;;31.33;24.25
59789;BME280;47353;51.614;5.530;2022-09-29T13:29:08;100193.91;;;34.28;19.23
59789;BME280;47353;51.614;5.530;2022-09-29T13:31:36;100199.78;;;34.53;19.96
59789;BME280;47353;51.614;5.530;2022-09-29T13:34:03;100206.59;;;35.12;17.56
59789;BME280;47353;51.614;5.530;2022-09-29T13:36:31;100203.03;;;34.67;16.94
59789;BME280;47353;51.614;5.530;2022-09-29T13:39:03;100199.53;;;33.87;17.21
59789;BME280;47353;51.614;5.530;2022-09-29T13:46:40;100197.31;;;30.49;22.37
59789;BME280;47353;51.614;5.530;2022-09-29T13:54:38;100199.41;;;27.32;25.55
59789;BME280;47353;51.614;5.530;2022-09-29T14:00:00;100201.66;;;25.01;28.72
59789;BME280;47353;51.614;5.530;2022-09-29T14:04:58;100207.69;;;23.10;32.61
59789;BME280;47353;51.614;5.530;2022-09-29T14:07:44;100216.63;;;24.35;31.37
59789;BME280;47353;51.614;5.530;2022-09-29T14:14:00;100210.22;;;28.60;25.97
59789;BME280;47353;51.614;5.530;2022-09-29T14:18:35;100224.34;;;28.91;25.40
59789;BME280;47353;51.614;5.530;2022-09-29T14:21:07;100228.44;;;28.80;24.16
59789;BME280;47353;51.614;5.530;2022-09-29T14:29:19;100233.34;;;31.60;22.15
59789;BME280;47353;51.614;5.530;2022-09-29T14:31:48;100230.44;;;31.11;20.51
59789;BME280;47353;51.614;5.530;2022-09-29T14:34:17;100229.47;;;29.79;22.75
59789;BME280;47353;51.614;5.530;2022-09-29T14:36:43;100233.94;;;27.87;24.63
59789;BME280;47353;51.614;5.530;2022-09-29T14:39:12;100234.00;;;26.48;26.77
59789;BME280;47353;51.614;5.530;2022-09-29T14:41:44;100234.22;;;25.61;27.64
59789;BME280;47353;51.614;5.530;2022-09-29T14:44:25;100243.84;;;25.13;28.63
59789;BME280;47353;51.614;5.530;2022-09-29T14:53:43;100245.69;;;22.93;33.14
59789;BME280;47353;51.614;5.530;2022-09-29T14:56:20;100243.44;;;22.07;35.14
59789;BME280;47353;51.614;5.530;2022-09-29T14:59:08;100240.78;;;21.98;35.58
59789;BME280;47353;51.614;5.530;2022-09-29T15:01:52;100245.94;;;21.62;36.21
59789;BME280;47353;51.614;5.530;2022-09-29T15:04:23;100252.03;;;21.48;35.60
59789;BME280;47353;51.614;5.530;2022-09-29T15:06:50;100248.84;;;21.34;37.10
59789;BME280;47353;51.614;5.530;2022-09-29T15:09:17;100252.81;;;21.33;37.70
59789;BME280;47353;51.614;5.530;2022-09-29T15:11:47;100251.91;;;21.29;38.69
59789;BME280;47353;51.614;5.530;2022-09-29T15:19:57;100254.28;;;23.64;34.71
59789;BME280;47353;51.614;5.530;2022-09-29T15:25:33;100253.38;;;26.29;29.78
59789;BME280;47353;51.614;5.530;2022-09-29T15:28:05;100267.53;;;27.07;29.23
59789;BME280;47353;51.614;5.530;2022-09-29T15:30:35;100269.69;;;27.42;27.13
59789;BME280;47353;51.614;5.530;2022-09-29T15:35:29;100281.50;;;28.14;26.51
59789;BME280;47353;51.614;5.530;2022-09-29T15:38:13;100281.06;;;28.23;26.57
59789;BME280;47353;51.614;5.530;2022-09-29T15:40:40;100270.91;;;28.50;25.20
59789;BME280;47353;51.614;5.530;2022-09-29T15:46:19;100277.06;;;27.96;27.91
59789;BME280;47353;51.614;5.530;2022-09-29T15:51:30;100280.66;;;26.47;28.66
59789;BME280;47353;51.614;5.530;2022-09-29T15:53:56;100277.56;;;25.25;30.60
59789;BME280;47353;51.614;5.530;2022-09-29T15:56:24;100291.44;;;25.00;30.86